createdAt,value
2019-05-19T00:00:33.708Z,41.83
2019-05-19T00:03:01.671Z,44.57
2019-05-19T00:05:28.648Z,50.40
2019-05-19T00:07:55.750Z,47.40
2019-05-19T00:10:22.746Z,55.50
2019-05-19T00:12:49.943Z,49.07
2019-05-19T00:15:17.737Z,52.20
2019-05-19T00:17:44.722Z,54.53
2019-05-19T00:20:14.544Z,62.03
2019-05-19T00:22:41.618Z,50.43
2019-05-19T00:25:46.052Z,54.90
2019-05-19T00:28:13.037Z,64.53
2019-05-19T00:30:40.026Z,54.10
2019-05-19T00:33:09.866Z,68.40
2019-05-19T00:35:36.868Z,65.90
2019-05-19T00:38:03.798Z,65.60
2019-05-19T00:40:30.763Z,63.70
2019-05-19T00:42:57.757Z,74.73
2019-05-19T00:45:24.816Z,69.77
2019-05-19T00:47:51.742Z,80.07
2019-05-19T00:50:18.829Z,68.80
2019-05-19T00:52:45.772Z,66.80
2019-05-19T00:55:12.712Z,81.73
2019-05-19T00:58:01.272Z,83.83
2019-05-19T01:00:28.384Z,74.13
2019-05-19T01:02:55.466Z,91.13
2019-05-19T01:05:22.450Z,89.97
2019-05-19T01:07:49.420Z,88.43
2019-05-19T01:10:16.684Z,95.33
2019-05-19T01:12:45.715Z,78.20
2019-05-19T01:15:12.971Z,88.20
2019-05-19T01:17:39.930Z,98.40
2019-05-19T01:20:07.425Z,93.73
2019-05-19T01:22:34.370Z,105.47
2019-05-19T01:25:01.388Z,114.17
2019-05-19T01:27:28.421Z,98.27
2019-05-19T01:29:55.376Z,113.93
2019-05-19T01:32:22.346Z,112.73
2019-05-19T01:34:49.340Z,106.47
2019-05-19T01:37:23.765Z,110.33
2019-05-19T01:39:50.888Z,108.50
2019-05-19T01:42:19.018Z,110.70
2019-05-19T01:44:45.971Z,120.63
2019-05-19T01:47:12.913Z,113.87
2019-05-19T01:49:39.894Z,118.07
2019-05-19T01:52:56.054Z,127.63
2019-05-19T01:55:23.219Z,130.43
2019-05-19T01:57:50.181Z,119.53
2019-05-19T02:00:19.336Z,119.83
2019-05-19T02:02:46.365Z,125.60
2019-05-19T02:05:13.720Z,101.97
2019-05-19T02:07:46.737Z,127.13
2019-05-19T02:10:13.821Z,130.40
2019-05-19T02:12:40.977Z,105.87
2019-05-19T02:15:09.461Z,109.23
2019-05-19T02:17:36.493Z,129.33
2019-05-19T02:20:04.158Z,115.13
2019-05-19T02:22:31.153Z,108.67
2019-05-19T02:24:58.090Z,152.90
2019-05-19T02:27:27.055Z,229.27
2019-05-19T02:29:54.047Z,141.47
2019-05-19T02:32:20.991Z,139.20
2019-05-19T02:34:47.978Z,138.27
2019-05-19T02:37:14.952Z,171.83
2019-05-19T02:39:41.910Z,189.23
2019-05-19T02:42:09.961Z,143.40
2019-05-19T02:44:38.537Z,153.93
2019-05-19T02:47:05.975Z,162.63
2019-05-19T02:49:40.007Z,169.93
2019-05-19T02:52:09.043Z,175.00
2019-05-19T02:54:36.478Z,145.80
2019-05-19T02:57:03.972Z,154.60
2019-05-19T02:59:32.850Z,166.37
2019-05-19T03:02:01.811Z,173.93
2019-05-19T03:04:28.793Z,155.57
2019-05-19T03:06:55.729Z,134.53
2019-05-19T03:09:22.741Z,140.77
2019-05-19T03:11:49.740Z,172.70
2019-05-19T03:14:16.666Z,216.47
2019-05-19T03:16:43.613Z,211.67
2019-05-19T03:19:10.602Z,139.03
2019-05-19T03:21:37.550Z,156.30
2019-05-19T03:24:04.511Z,544.63
2019-05-19T03:26:34.327Z,188.67
2019-05-19T03:29:01.270Z,368.47
2019-05-19T03:31:44.344Z,229.23
2019-05-19T03:34:11.863Z,164.63
2019-05-19T03:36:38.815Z,224.43
2019-05-19T03:39:06.189Z,254.17
2019-05-19T03:41:33.137Z,253.20
2019-05-19T03:44:00.122Z,214.97
2019-05-19T03:46:27.110Z,144.03
2019-05-19T03:48:54.108Z,237.50
2019-05-19T03:51:31.177Z,131.87
2019-05-19T03:53:49.918Z,124.17
2019-05-19T03:56:16.880Z,95.97
2019-05-19T03:58:43.851Z,98.13
2019-05-19T04:01:10.789Z,121.77
2019-05-19T04:03:56.125Z,119.17
2019-05-19T04:06:23.079Z,295.23
2019-05-19T04:08:50.025Z,165.03
2019-05-19T04:11:17.100Z,135.57
2019-05-19T04:13:47.328Z,119.50
2019-05-19T04:16:14.281Z,110.80
2019-05-19T04:18:41.281Z,121.43
2019-05-19T04:21:08.248Z,126.97
2019-05-19T04:23:35.187Z,161.10
2019-05-19T04:26:02.263Z,153.77
2019-05-19T04:28:30.339Z,151.60
2019-05-19T04:30:57.285Z,147.70
2019-05-19T04:33:24.254Z,145.73
2019-05-19T04:35:51.222Z,136.40
2019-05-19T04:38:18.210Z,161.90
2019-05-19T04:40:45.152Z,169.70
2019-05-19T04:43:12.089Z,188.63
2019-05-19T04:45:39.068Z,157.57
2019-05-19T04:48:09.365Z,161.77
2019-05-19T04:50:34.971Z,165.33
2019-05-19T04:53:01.947Z,181.70
2019-05-19T04:55:28.868Z,193.27
2019-05-19T04:57:55.847Z,231.57
2019-05-19T05:00:22.775Z,200.17
2019-05-19T05:02:50.087Z,177.83
2019-05-19T05:05:17.344Z,188.77
2019-05-19T05:07:44.270Z,199.10
2019-05-19T05:10:11.449Z,197.23
2019-05-19T05:12:38.412Z,192.90
2019-05-19T05:15:05.636Z,188.43
2019-05-19T05:17:32.602Z,202.50
2019-05-19T05:19:59.535Z,173.47
2019-05-19T05:22:26.524Z,185.23
2019-05-19T05:24:53.487Z,176.57
2019-05-19T05:27:20.456Z,172.33
2019-05-19T05:29:55.128Z,178.10
2019-05-19T05:32:25.293Z,180.87
2019-05-19T05:34:52.238Z,161.23
2019-05-19T05:37:19.265Z,170.13
2019-05-19T05:39:46.338Z,171.43
2019-05-19T05:42:13.295Z,162.27
2019-05-19T05:44:40.263Z,153.10
2019-05-19T05:47:07.197Z,137.43
2019-05-19T05:49:34.145Z,131.17
2019-05-19T05:52:01.176Z,131.63
2019-05-19T05:54:28.239Z,125.43
2019-05-19T05:56:57.535Z,121.97
2019-05-19T05:59:24.525Z,117.67
2019-05-19T06:01:51.489Z,106.30
2019-05-19T06:04:18.413Z,126.27
2019-05-19T06:06:45.957Z,115.83
2019-05-19T06:09:12.962Z,115.67
2019-05-19T06:11:39.927Z,114.37
2019-05-19T06:14:06.943Z,102.73
2019-05-19T06:16:33.895Z,111.40
2019-05-19T06:19:00.844Z,115.90
2019-05-19T06:21:27.842Z,110.73
2019-05-19T06:23:54.806Z,108.97
2019-05-19T06:26:21.761Z,108.73
2019-05-19T06:28:48.760Z,106.70
2019-05-19T06:31:15.803Z,103.17
2019-05-19T06:33:42.810Z,107.73
2019-05-19T06:36:09.797Z,107.20
2019-05-19T06:38:36.737Z,103.60
2019-05-19T06:41:03.695Z,112.17
2019-05-19T06:43:30.729Z,112.63
2019-05-19T06:45:57.720Z,106.80
2019-05-19T06:48:24.656Z,107.53
2019-05-19T06:50:51.645Z,106.60
2019-05-19T06:53:18.577Z,105.40
2019-05-19T06:55:45.542Z,105.33
2019-05-19T06:58:12.554Z,109.37
2019-05-19T07:00:39.494Z,103.57
2019-05-19T07:03:06.449Z,96.87
2019-05-19T07:05:33.462Z,96.57
2019-05-19T07:08:08.486Z,99.50
2019-05-19T07:10:35.485Z,104.10
2019-05-19T07:13:02.507Z,105.03
2019-05-19T07:15:29.449Z,100.53
2019-05-19T07:17:56.388Z,94.73
2019-05-19T07:20:54.135Z,96.33
2019-05-19T07:23:28.217Z,95.30
2019-05-19T07:25:51.761Z,99.30
2019-05-19T07:28:19.010Z,99.47
2019-05-19T07:30:45.959Z,99.37
2019-05-19T07:33:13.132Z,100.97
2019-05-19T07:35:40.138Z,85.43
2019-05-19T07:38:07.572Z,91.97
2019-05-19T07:40:35.698Z,91.93
2019-05-19T07:43:02.683Z,88.47
2019-05-19T07:45:29.651Z,78.63
2019-05-19T07:47:56.648Z,88.73
2019-05-19T07:50:23.638Z,88.63
2019-05-19T07:52:50.597Z,89.03
2019-05-19T07:55:17.657Z,84.00
2019-05-19T07:57:44.682Z,87.50
2019-05-19T08:00:13.437Z,86.93
2019-05-19T08:02:40.399Z,78.77
2019-05-19T08:05:07.505Z,73.37
2019-05-19T08:07:34.578Z,80.40
2019-05-19T08:10:01.666Z,85.83
2019-05-19T08:12:28.767Z,79.27
2019-05-19T08:14:57.050Z,74.83
2019-05-19T08:17:26.015Z,75.27
2019-05-19T08:19:52.910Z,74.23
2019-05-19T08:22:19.969Z,76.13
2019-05-19T08:24:46.957Z,74.07
2019-05-19T08:27:13.963Z,75.53
2019-05-19T08:29:40.915Z,74.80
2019-05-19T08:32:07.959Z,73.87
2019-05-19T08:34:34.969Z,75.83
2019-05-19T08:37:02.001Z,75.77
2019-05-19T08:39:29.064Z,74.60
2019-05-19T08:41:56.146Z,72.90
2019-05-19T08:44:23.114Z,72.67
2019-05-19T08:46:50.054Z,72.50
2019-05-19T08:49:17.042Z,67.20
2019-05-19T08:51:44.010Z,63.93
2019-05-19T08:54:15.075Z,62.00
2019-05-19T08:56:39.889Z,69.33
2019-05-19T08:59:06.846Z,65.53
2019-05-19T09:01:33.785Z,63.13
2019-05-19T09:04:00.771Z,54.43
2019-05-19T09:06:27.730Z,45.43
2019-05-19T09:08:54.704Z,48.77
2019-05-19T09:11:21.685Z,45.47
2019-05-19T09:13:48.775Z,48.63
2019-05-19T09:16:15.758Z,46.80
2019-05-19T09:18:43.973Z,46.70
2019-05-19T09:21:10.922Z,39.67
2019-05-19T09:23:37.906Z,45.67
2019-05-19T09:26:04.908Z,46.27
2019-05-19T09:28:31.857Z,46.83
2019-05-19T09:30:58.837Z,55.43
2019-05-19T09:33:25.867Z,47.67
2019-05-19T09:35:52.819Z,44.53
2019-05-19T09:38:38.338Z,40.00
2019-05-19T09:41:07.110Z,50.30
2019-05-19T09:44:01.216Z,44.43
2019-05-19T09:46:28.221Z,41.77
2019-05-19T09:49:13.745Z,42.93
2019-05-19T09:51:40.712Z,45.80
2019-05-19T09:54:07.777Z,41.57
2019-05-19T09:56:34.833Z,43.00
2019-05-19T09:59:01.776Z,41.27
2019-05-19T10:01:28.726Z,38.43
2019-05-19T10:03:55.734Z,41.40
2019-05-19T10:06:22.716Z,43.17
2019-05-19T10:09:10.588Z,35.53
2019-05-19T10:12:04.035Z,36.10
2019-05-19T10:14:31.089Z,35.10
2019-05-19T10:16:59.894Z,33.20
2019-05-19T10:19:26.862Z,34.07
2019-05-19T10:21:53.854Z,33.60
2019-05-19T10:24:22.912Z,34.27
2019-05-19T10:26:50.045Z,35.43
2019-05-19T10:29:17.068Z,34.70
2019-05-19T10:31:49.401Z,35.20
2019-05-19T10:34:16.492Z,32.10
2019-05-19T10:36:43.473Z,31.63
2019-05-19T10:39:10.680Z,34.13
2019-05-19T10:41:37.649Z,31.93
2019-05-19T10:44:06.746Z,30.30
2019-05-19T10:46:33.721Z,30.60
2019-05-19T10:49:00.716Z,31.97
2019-05-19T10:51:27.741Z,31.80
2019-05-19T10:53:54.712Z,28.30
2019-05-19T10:56:21.667Z,33.10
2019-05-19T10:58:48.926Z,31.73
2019-05-19T11:01:16.103Z,28.07
2019-05-19T11:03:43.060Z,23.53
2019-05-19T11:06:10.181Z,21.43
2019-05-19T11:08:37.313Z,18.53
2019-05-19T11:11:04.326Z,18.37
2019-05-19T11:13:31.329Z,17.67
2019-05-19T11:15:58.563Z,16.43
2019-05-19T11:18:25.581Z,17.93
2019-05-19T11:20:52.543Z,16.63
2019-05-19T11:23:19.552Z,12.83
2019-05-19T11:25:51.514Z,13.00
2019-05-19T11:28:15.421Z,8.70
2019-05-19T11:30:42.366Z,9.77
2019-05-19T11:33:09.329Z,11.03
2019-05-19T11:35:36.350Z,10.03
2019-05-19T11:38:03.310Z,11.57
2019-05-19T11:40:30.269Z,9.80
2019-05-19T11:42:57.294Z,11.40
2019-05-19T11:45:24.223Z,11.53
2019-05-19T11:47:51.256Z,11.77
2019-05-19T11:50:18.264Z,11.73
2019-05-19T11:52:45.267Z,12.60
2019-05-19T11:55:12.455Z,12.97
2019-05-19T11:57:39.396Z,15.47
2019-05-19T12:00:07.490Z,11.37
2019-05-19T12:02:34.488Z,11.20
2019-05-19T12:05:01.536Z,9.80
2019-05-19T12:07:29.666Z,10.10
2019-05-19T12:09:58.747Z,10.10
2019-05-19T12:12:25.726Z,9.13
2019-05-19T12:14:52.729Z,8.73
2019-05-19T12:17:21.278Z,8.67
2019-05-19T12:19:48.214Z,9.00
2019-05-19T12:22:15.298Z,8.80
2019-05-19T12:24:44.050Z,9.87
2019-05-19T12:27:12.348Z,11.43
2019-05-19T12:29:39.349Z,10.20
2019-05-19T12:32:06.317Z,9.17
2019-05-19T12:34:33.297Z,11.93
2019-05-19T12:37:00.328Z,11.63
2019-05-19T12:39:27.266Z,10.93
2019-05-19T12:41:54.223Z,11.30
2019-05-19T12:44:21.332Z,10.07
2019-05-19T12:46:48.314Z,10.07
2019-05-19T12:49:15.265Z,10.23
2019-05-19T12:51:42.204Z,10.40
2019-05-19T12:54:09.207Z,10.63
2019-05-19T12:56:39.686Z,10.97
2019-05-19T12:59:05.069Z,11.60
2019-05-19T13:01:32.080Z,11.50
2019-05-19T13:03:59.036Z,11.83
2019-05-19T13:06:26.061Z,12.60
2019-05-19T13:08:53.042Z,11.60
2019-05-19T13:11:19.987Z,12.20
2019-05-19T13:13:46.975Z,12.90
2019-05-19T13:16:14.002Z,11.00
2019-05-19T13:18:41.194Z,12.47
2019-05-19T13:21:08.127Z,11.07
2019-05-19T13:23:35.132Z,12.17
2019-05-19T13:26:03.820Z,11.97
2019-05-19T13:28:30.817Z,12.40
2019-05-19T13:30:57.787Z,11.27
2019-05-19T13:33:24.788Z,10.60
2019-05-19T13:35:51.830Z,10.90
2019-05-19T13:38:20.496Z,10.93
2019-05-19T13:40:47.481Z,9.93
2019-05-19T13:43:14.424Z,9.97
2019-05-19T13:45:41.409Z,8.63
2019-05-19T13:48:08.384Z,10.40
2019-05-19T13:50:35.317Z,11.17
2019-05-19T13:53:02.277Z,9.83
2019-05-19T13:55:29.301Z,7.77
2019-05-19T13:57:56.249Z,7.77
2019-05-19T14:00:23.212Z,9.53
2019-05-19T14:02:50.209Z,11.10
2019-05-19T14:05:17.146Z,8.23
2019-05-19T14:07:44.101Z,10.07
2019-05-19T14:10:12.183Z,8.73
2019-05-19T14:12:39.134Z,8.93
2019-05-19T14:15:06.844Z,10.77
2019-05-19T14:17:33.955Z,9.20
2019-05-19T14:20:02.200Z,9.83
2019-05-19T14:22:29.660Z,9.43
2019-05-19T14:24:56.665Z,11.53
2019-05-19T14:27:30.242Z,9.10
2019-05-19T14:29:52.502Z,10.20
2019-05-19T14:32:19.497Z,12.27
2019-05-19T14:34:46.460Z,11.87
2019-05-19T14:37:13.401Z,12.77
2019-05-19T14:39:40.394Z,11.87
2019-05-19T14:42:11.445Z,11.23
2019-05-19T14:44:38.414Z,11.80
2019-05-19T14:47:05.436Z,12.07
2019-05-19T14:49:32.372Z,15.07
2019-05-19T14:51:59.304Z,11.77
2019-05-19T14:54:26.425Z,12.73
2019-05-19T14:56:53.386Z,12.27
2019-05-19T14:59:20.348Z,11.57
2019-05-19T15:01:47.362Z,11.17
2019-05-19T15:04:14.346Z,12.53
2019-05-19T15:06:41.463Z,12.60
2019-05-19T15:09:08.528Z,11.87
2019-05-19T15:11:35.504Z,11.40
2019-05-19T15:14:05.529Z,11.87
2019-05-19T15:16:33.637Z,11.60
2019-05-19T15:19:00.609Z,15.57
2019-05-19T15:21:27.630Z,11.17
2019-05-19T15:23:54.576Z,11.47
2019-05-19T15:26:21.529Z,10.30
2019-05-19T15:28:48.633Z,9.63
2019-05-19T15:31:15.587Z,9.70
2019-05-19T15:33:42.613Z,10.20
2019-05-19T15:36:10.076Z,5.43
2019-05-19T15:38:40.091Z,5.30
2019-05-19T15:41:07.039Z,3.17
2019-05-19T15:43:34.023Z,3.70
2019-05-19T15:46:00.989Z,3.80
2019-05-19T15:48:28.248Z,2.73
2019-05-19T15:50:55.216Z,5.93
2019-05-19T15:53:23.261Z,2.60
2019-05-19T15:55:50.255Z,1.77
2019-05-19T15:58:17.409Z,3.10
2019-05-19T16:00:44.379Z,1.60
2019-05-19T16:03:11.386Z,4.23
2019-05-19T16:05:38.337Z,0.97
2019-05-19T16:08:05.286Z,1.60
2019-05-19T16:10:32.299Z,4.60
2019-05-19T16:12:59.291Z,4.50
2019-05-19T16:15:26.301Z,1.80
2019-05-19T16:17:53.429Z,2.30
2019-05-19T16:20:20.369Z,2.90
2019-05-19T16:22:47.315Z,3.17
2019-05-19T16:25:14.708Z,3.50
2019-05-19T16:27:41.718Z,4.37
2019-05-19T16:30:09.485Z,8.73
2019-05-19T16:32:36.617Z,5.90
2019-05-19T16:35:03.883Z,6.37
2019-05-19T16:37:30.872Z,7.60
2019-05-19T16:39:57.892Z,5.30
2019-05-19T16:42:24.856Z,8.43
2019-05-19T16:44:51.864Z,6.50
2019-05-19T16:47:18.848Z,6.77
2019-05-19T16:49:48.520Z,8.93
2019-05-19T16:52:15.525Z,13.70
2019-05-19T16:54:45.405Z,10.93
2019-05-19T16:57:12.397Z,17.47
2019-05-19T16:59:39.522Z,16.87
2019-05-19T17:02:06.542Z,20.70
2019-05-19T17:04:33.537Z,18.03
2019-05-19T17:07:03.142Z,22.17
2019-05-19T17:09:30.441Z,22.63
2019-05-19T17:11:57.381Z,21.47
2019-05-19T17:14:24.365Z,18.50
2019-05-19T17:16:51.458Z,20.43
2019-05-19T17:19:18.464Z,20.60
2019-05-19T17:21:45.445Z,20.33
2019-05-19T17:24:12.470Z,20.50
2019-05-19T17:26:39.613Z,17.60
2019-05-19T17:29:06.542Z,18.13
2019-05-19T17:31:33.563Z,19.00
2019-05-19T17:34:00.548Z,19.90
2019-05-19T17:36:27.655Z,18.27
2019-05-19T17:38:54.696Z,17.47
2019-05-19T17:41:21.710Z,16.57
2019-05-19T17:43:48.682Z,15.30
2019-05-19T17:46:15.724Z,15.33
2019-05-19T17:48:42.665Z,19.50
2019-05-19T17:51:09.626Z,17.57
2019-05-19T17:53:36.648Z,19.97
2019-05-19T17:56:03.593Z,24.30
2019-05-19T17:58:32.975Z,28.83
2019-05-19T18:01:00.005Z,26.80
2019-05-19T18:03:27.583Z,29.80
2019-05-19T18:05:54.680Z,33.83
2019-05-19T18:08:21.638Z,35.87
2019-05-19T18:10:48.605Z,39.37
2019-05-19T18:13:16.020Z,42.70
2019-05-19T18:15:45.488Z,36.73
2019-05-19T18:18:12.675Z,38.30
2019-05-19T18:20:39.667Z,40.57
2019-05-19T18:23:06.794Z,39.20
2019-05-19T18:25:34.919Z,42.80
2019-05-19T18:28:01.994Z,38.70
2019-05-19T18:30:28.971Z,36.07
2019-05-19T18:32:55.962Z,34.53
2019-05-19T18:35:23.003Z,34.70
2019-05-19T18:37:50.077Z,34.03
2019-05-19T18:40:17.263Z,36.77
2019-05-19T18:42:44.244Z,34.77
2019-05-19T18:45:11.620Z,35.27
2019-05-19T18:47:38.603Z,33.10
2019-05-19T18:50:06.065Z,33.90
2019-05-19T18:52:33.150Z,31.60
2019-05-19T18:55:00.134Z,34.77
2019-05-19T18:57:28.244Z,38.27
2019-05-19T18:59:55.252Z,34.40
2019-05-19T19:02:22.309Z,38.40
2019-05-19T19:04:49.307Z,39.67
2019-05-19T19:07:16.253Z,39.73
2019-05-19T19:09:45.653Z,40.40
2019-05-19T19:12:12.597Z,37.30
2019-05-19T19:14:39.613Z,37.00
2019-05-19T19:17:06.618Z,40.17
2019-05-19T19:19:33.577Z,40.67
2019-05-19T19:22:00.632Z,43.23
2019-05-19T19:24:27.607Z,46.13
2019-05-19T19:26:54.561Z,50.97
2019-05-19T19:29:21.615Z,49.40
2019-05-19T19:31:49.051Z,50.53
2019-05-19T19:34:16.161Z,46.73
2019-05-19T19:36:43.197Z,52.17
2019-05-19T19:39:11.307Z,53.60
2019-05-19T19:41:38.294Z,55.40
2019-05-19T19:44:05.384Z,58.37
2019-05-19T19:46:32.333Z,64.13
2019-05-19T19:48:59.316Z,65.57
2019-05-19T19:51:26.297Z,65.13
2019-05-19T19:53:54.383Z,71.83
2019-05-19T19:56:21.372Z,62.77
2019-05-19T19:58:48.517Z,60.23
2019-05-19T20:01:16.192Z,60.33
2019-05-19T20:03:43.190Z,50.67
2019-05-19T20:06:10.341Z,54.87
2019-05-19T20:08:37.312Z,50.10
2019-05-19T20:11:05.848Z,53.97
2019-05-19T20:13:34.687Z,49.10
2019-05-19T20:16:01.756Z,51.50
2019-05-19T20:18:28.867Z,54.10
2019-05-19T20:20:55.893Z,53.63
2019-05-19T20:23:22.905Z,53.77
2019-05-19T20:25:49.969Z,56.00
2019-05-19T20:28:17.050Z,55.97
2019-05-19T20:30:45.498Z,64.93
2019-05-19T20:33:12.580Z,69.77
2019-05-19T20:36:16.419Z,63.80
2019-05-19T20:38:43.414Z,62.23
2019-05-19T20:41:10.406Z,69.60
2019-05-19T20:43:40.253Z,72.90
2019-05-19T20:46:07.347Z,71.67
2019-05-19T20:48:34.357Z,78.87
2019-05-19T20:51:01.879Z,76.10
2019-05-19T20:53:28.832Z,73.83
2019-05-19T20:55:55.838Z,71.87
2019-05-19T20:58:22.857Z,74.33
2019-05-19T21:00:51.918Z,76.30
2019-05-19T21:03:19.167Z,77.73
2019-05-19T21:06:05.142Z,72.27
2019-05-19T21:08:33.565Z,78.03
2019-05-19T21:11:00.924Z,79.13
2019-05-19T21:13:29.146Z,71.27
2019-05-19T21:15:56.273Z,80.07
2019-05-19T21:18:23.380Z,76.40
2019-05-19T21:20:50.437Z,66.93
2019-05-19T21:23:17.423Z,59.37
2019-05-19T21:25:44.442Z,63.50
2019-05-19T21:28:11.484Z,71.13
2019-05-19T21:30:38.449Z,76.73
2019-05-19T21:33:05.429Z,68.20
2019-05-19T21:35:33.231Z,68.93
2019-05-19T21:38:00.220Z,68.23
2019-05-19T21:40:27.211Z,63.00
2019-05-19T21:42:54.206Z,62.93
2019-05-19T21:45:21.157Z,73.30
2019-05-19T21:47:48.152Z,62.57
2019-05-19T21:50:15.124Z,64.70
2019-05-19T21:52:42.099Z,52.53
2019-05-19T21:55:09.226Z,58.53
2019-05-19T21:57:36.178Z,74.13
2019-05-19T22:00:05.398Z,82.47
2019-05-19T22:02:32.401Z,82.43
2019-05-19T22:05:01.505Z,77.17
2019-05-19T22:07:51.292Z,79.17
2019-05-19T22:10:20.067Z,58.90
2019-05-19T22:12:47.039Z,49.93
2019-05-19T22:15:14.076Z,62.73
2019-05-19T22:17:41.102Z,47.03
2019-05-19T22:20:08.384Z,44.80
2019-05-19T22:22:35.384Z,53.50
2019-05-19T22:25:02.586Z,69.40
2019-05-19T22:27:29.570Z,67.80
2019-05-19T22:29:56.588Z,75.97
2019-05-19T22:32:23.542Z,100.07
2019-05-19T22:34:50.509Z,85.70
2019-05-19T22:37:17.526Z,74.43
2019-05-19T22:39:44.467Z,72.53
2019-05-19T22:42:11.428Z,72.27
2019-05-19T22:44:38.425Z,88.20
2019-05-19T22:47:05.387Z,96.20
2019-05-19T22:49:34.177Z,81.47
2019-05-19T22:52:01.189Z,98.00
2019-05-19T22:54:28.137Z,86.80
2019-05-19T22:56:55.130Z,78.77
2019-05-19T22:59:22.118Z,67.80
2019-05-19T23:01:51.834Z,100.53
2019-05-19T23:04:19.840Z,85.93
2019-05-19T23:06:46.789Z,90.53
2019-05-19T23:09:13.773Z,100.67
2019-05-19T23:11:40.849Z,124.23
2019-05-19T23:14:07.959Z,107.30
2019-05-19T23:16:34.983Z,120.93
2019-05-19T23:19:01.996Z,128.57
2019-05-19T23:21:35.242Z,178.90
2019-05-19T23:24:51.143Z,211.43
2019-05-19T23:27:18.102Z,293.37
2019-05-19T23:29:45.050Z,321.83
2019-05-19T23:32:12.082Z,344.83
2019-05-19T23:34:39.042Z,322.47
2019-05-19T23:37:06.004Z,451.87
2019-05-19T23:39:34.124Z,439.77
2019-05-19T23:42:01.092Z,438.03
2019-05-19T23:44:28.046Z,401.13
2019-05-19T23:46:55.045Z,384.97
2019-05-19T23:49:23.115Z,371.40
2019-05-19T23:51:50.164Z,372.73
2019-05-19T23:54:24.861Z,350.53
2019-05-19T23:56:51.810Z,401.10
2019-05-19T23:59:18.777Z,368.27
